createdAt,value
2023-04-17T00:00:01.055Z,7.6
2023-04-17T00:02:01.199Z,7.5
2023-04-17T00:03:01.173Z,7.6
2023-04-17T00:06:01.118Z,7.5
2023-04-17T00:07:01.136Z,7.6
2023-04-17T00:08:01.090Z,7.7
2023-04-17T00:10:01.015Z,7.6
2023-04-17T00:12:01.039Z,7.7
2023-04-17T00:13:01.013Z,7.6
2023-04-17T00:17:01.062Z,7.8
2023-04-17T00:19:01.084Z,7.7
2023-04-17T00:22:00.955Z,7.8
2023-04-17T00:23:01.053Z,7.6
2023-04-17T00:26:00.936Z,7.7
2023-04-17T00:27:01.125Z,7.8
2023-04-17T00:29:01.212Z,7.7
2023-04-17T00:34:00.982Z,7.6
2023-04-17T00:36:00.944Z,7.6
2023-04-17T00:37:00.964Z,7.7
2023-04-17T00:39:01.080Z,7.7
2023-04-17T00:41:00.977Z,7.6
2023-04-17T00:42:01.109Z,7.5
2023-04-17T00:44:00.934Z,7.5
2023-04-17T00:46:00.967Z,7.4
2023-04-17T00:47:01.006Z,7.7
2023-04-17T00:48:01.303Z,7.6
2023-04-17T00:54:01.100Z,7.6
2023-04-17T00:56:01.007Z,7.5
2023-04-17T00:57:01.154Z,7.4
2023-04-17T01:01:01.009Z,7.6
2023-04-17T01:03:01.182Z,7.5
2023-04-17T01:06:00.998Z,7.6
2023-04-17T01:08:00.923Z,7.6
2023-04-17T01:10:00.924Z,7.5
2023-04-17T01:11:00.961Z,7.7
2023-04-17T01:12:01.031Z,7.5
2023-04-17T01:13:01.080Z,7.6
2023-04-17T01:16:00.989Z,7.5
2023-04-17T01:22:00.997Z,7.6
2023-04-17T01:23:00.971Z,7.4
2023-04-17T01:25:00.968Z,7.3
2023-04-17T01:26:00.948Z,7.5
2023-04-17T01:28:00.978Z,7.3
2023-04-17T01:31:01.015Z,7.4
2023-04-17T01:33:01.187Z,7.5
2023-04-17T01:35:00.992Z,7.4
2023-04-17T01:37:00.978Z,7.5
2023-04-17T01:39:01.209Z,7.5
2023-04-17T01:41:00.996Z,7.2
2023-04-17T01:42:01.104Z,7.5
2023-04-17T01:44:01.068Z,7.5
2023-04-17T01:45:01.244Z,7.3
2023-04-17T01:52:01.009Z,7.2
2023-04-17T01:53:01.060Z,7.3
2023-04-17T01:55:01.032Z,7.3
2023-04-17T01:58:01.022Z,7.2
2023-04-17T02:02:01.293Z,7.2
2023-04-17T02:05:01.047Z,7.2
2023-04-17T02:09:01.245Z,7.4
2023-04-17T02:12:01.097Z,7.2
2023-04-17T02:16:01.020Z,7.3
2023-04-17T02:19:01.045Z,7.2
2023-04-17T02:21:01.195Z,7.2
2023-04-17T02:23:01.025Z,7.3
2023-04-17T02:26:00.961Z,7.2
2023-04-17T02:27:01.060Z,7.3
2023-04-17T02:29:00.996Z,7.3
2023-04-17T02:32:01.043Z,7.2
2023-04-17T02:34:00.974Z,7.2
2023-04-17T02:37:00.962Z,7.1
2023-04-17T02:39:01.158Z,7.2
2023-04-17T02:42:00.995Z,7.3
2023-04-17T02:48:01.123Z,7.1
2023-04-17T02:50:00.931Z,7.2
2023-04-17T02:52:00.959Z,7.1
2023-04-17T02:54:01.127Z,7.2
2023-04-17T02:57:01.153Z,7.3
2023-04-17T03:00:01.150Z,7.3
2023-04-17T03:02:01.071Z,7.2
2023-04-17T03:03:01.236Z,7.3
2023-04-17T03:05:00.953Z,7.3
2023-04-17T03:06:00.986Z,7.2
2023-04-17T03:10:00.970Z,7.2
2023-04-17T03:13:00.997Z,7.1
2023-04-17T03:15:01.074Z,7.2
2023-04-17T03:17:00.966Z,7
2023-04-17T03:19:00.949Z,7.3
2023-04-17T03:20:00.992Z,7.1
2023-04-17T03:23:00.937Z,7.2
2023-04-17T03:24:01.162Z,7.1
2023-04-17T03:26:01.000Z,7.2
2023-04-17T03:27:01.159Z,7.1
2023-04-17T03:29:01.038Z,7
2023-04-17T03:31:00.944Z,7.1
2023-04-17T03:33:01.177Z,7.1
2023-04-17T03:38:01.056Z,7
2023-04-17T03:40:00.949Z,7.1
2023-04-17T03:43:00.975Z,7
2023-04-17T03:44:01.021Z,7.1
2023-04-17T03:46:00.993Z,7
2023-04-17T03:47:01.025Z,7.1
2023-04-17T03:51:01.209Z,7.1
2023-04-17T03:53:01.008Z,7
2023-04-17T03:56:00.940Z,7.1
2023-04-17T03:57:01.008Z,7
2023-04-17T04:01:01.027Z,7.1
2023-04-17T04:03:01.069Z,7
2023-04-17T04:06:01.038Z,7.1
2023-04-17T04:08:01.030Z,7.1
2023-04-17T04:09:01.145Z,7
2023-04-17T04:11:00.983Z,7.1
2023-04-17T04:12:01.070Z,7
2023-04-17T04:14:01.060Z,7
2023-04-17T04:15:01.276Z,6.9
2023-04-17T04:18:01.011Z,7.1
2023-04-17T04:19:00.989Z,6.9
2023-04-17T04:21:01.036Z,7
2023-04-17T04:22:01.079Z,6.9
2023-04-17T04:25:01.056Z,7.1
2023-04-17T04:26:00.931Z,7
2023-04-17T04:27:01.065Z,7.1
2023-04-17T04:32:00.937Z,7.1
2023-04-17T04:35:00.951Z,7
2023-04-17T04:36:01.465Z,7.1
2023-04-17T04:40:00.945Z,7.2
2023-04-17T04:41:00.930Z,7.1
2023-04-17T04:42:01.017Z,7
2023-04-17T04:44:00.961Z,7
2023-04-17T04:45:01.424Z,7.1
2023-04-17T04:50:01.036Z,7.1
2023-04-17T04:54:01.159Z,7
2023-04-17T04:57:01.077Z,6.9
2023-04-17T04:59:01.009Z,7
2023-04-17T05:07:01.493Z,7.1
2023-04-17T05:11:01.110Z,6.9
2023-04-17T05:23:01.543Z,6.8
2023-04-17T05:26:01.103Z,6.8
2023-04-17T05:27:01.342Z,7
2023-04-17T05:28:01.524Z,6.7
2023-04-17T05:29:01.291Z,6.8
2023-04-17T05:34:01.237Z,6.9
2023-04-17T05:35:01.215Z,6.8
2023-04-17T05:42:01.125Z,6.9
2023-04-17T05:43:01.312Z,6.8
2023-04-17T05:46:01.134Z,6.9
2023-04-17T05:47:01.191Z,6.8
2023-04-17T05:50:01.010Z,6.9
2023-04-17T05:52:00.955Z,6.8
2023-04-17T05:53:01.009Z,6.7
2023-04-17T05:55:01.020Z,6.6
2023-04-17T05:57:01.045Z,6.8
2023-04-17T06:00:01.249Z,6.9
2023-04-17T06:02:01.195Z,6.8
2023-04-17T06:05:01.256Z,7
2023-04-17T06:07:01.041Z,6.8
2023-04-17T06:13:01.066Z,6.9
2023-04-17T06:15:01.222Z,6.8
2023-04-17T06:18:01.025Z,6.8
2023-04-17T06:19:01.033Z,7
2023-04-17T06:21:01.072Z,7
2023-04-17T06:23:01.125Z,6.8
2023-04-17T06:25:01.042Z,7
2023-04-17T06:27:01.062Z,6.9
2023-04-17T06:29:01.135Z,6.8
2023-04-17T06:30:01.171Z,6.9
2023-04-17T06:32:00.964Z,6.9
2023-04-17T06:33:01.104Z,7
2023-04-17T06:36:00.929Z,7
2023-04-17T06:37:01.035Z,7.1
2023-04-17T06:39:01.135Z,7
2023-04-17T06:41:01.032Z,7
2023-04-17T06:43:01.036Z,6.9
2023-04-17T06:47:02.837Z,7
2023-04-17T06:50:00.971Z,7.1
2023-04-17T06:51:01.232Z,7
2023-04-17T06:53:01.145Z,7
2023-04-17T06:55:01.020Z,7.1
2023-04-17T06:58:00.969Z,7.1
2023-04-17T06:59:02.975Z,7
2023-04-17T07:00:01.398Z,6.9
2023-04-17T07:02:01.010Z,6.9
2023-04-17T07:03:01.163Z,7
2023-04-17T07:06:00.939Z,6.9
2023-04-17T07:10:01.010Z,7
2023-04-17T07:11:01.010Z,6.9
2023-04-17T07:13:01.051Z,7
2023-04-17T07:15:01.089Z,7.1
2023-04-17T07:19:01.124Z,7
2023-04-17T07:21:01.038Z,7
2023-04-17T07:23:01.067Z,7.1
2023-04-17T07:25:01.019Z,7.1
2023-04-17T07:29:01.073Z,7
2023-04-17T07:32:00.964Z,7.1
2023-04-17T07:33:01.095Z,7
2023-04-17T07:34:01.156Z,6.9
2023-04-17T07:36:00.935Z,7.1
2023-04-17T07:37:01.016Z,7
2023-04-17T07:39:01.079Z,7
2023-04-17T07:44:00.971Z,7.1
2023-04-17T07:45:01.150Z,7
2023-04-17T07:47:01.117Z,7
2023-04-17T07:49:01.056Z,7
2023-04-17T07:51:01.075Z,7.1
2023-04-17T07:54:00.999Z,7.1
2023-04-17T07:55:01.039Z,7
2023-04-17T07:57:01.029Z,7
2023-04-17T07:58:01.212Z,7.1
2023-04-17T08:02:01.064Z,7.2
2023-04-17T08:04:01.274Z,7
2023-04-17T08:05:01.108Z,7.1
2023-04-17T08:08:00.928Z,7.2
2023-04-17T08:09:01.022Z,7.3
2023-04-17T08:12:00.998Z,7.2
2023-04-17T08:13:01.218Z,7.1
2023-04-17T08:15:01.436Z,7
2023-04-17T08:17:01.094Z,7.2
2023-04-17T08:19:01.031Z,7.1
2023-04-17T08:21:01.067Z,7.2
2023-04-17T08:24:00.946Z,7
2023-04-17T08:25:01.051Z,7.1
2023-04-17T08:27:01.013Z,7.1
2023-04-17T08:29:01.054Z,7.1
2023-04-17T08:31:01.039Z,7
2023-04-17T08:33:01.044Z,7.1
2023-04-17T08:37:01.055Z,7.1
2023-04-17T08:39:01.147Z,7.1
2023-04-17T08:43:01.028Z,7.2
2023-04-17T08:45:01.072Z,7.2
2023-04-17T08:47:01.037Z,7.2
2023-04-17T08:51:01.073Z,7.5
2023-04-17T08:53:01.096Z,7.5
2023-04-17T08:55:01.080Z,7.4
2023-04-17T08:57:01.104Z,7.4
2023-04-17T09:01:01.037Z,7.6
2023-04-17T09:04:01.159Z,7.3
2023-04-17T09:07:01.072Z,7.2
2023-04-17T09:10:01.109Z,7.2
2023-04-17T09:12:00.915Z,7.3
2023-04-17T09:13:01.257Z,7.1
2023-04-17T09:16:01.084Z,7.3
2023-04-17T09:17:01.179Z,7.2
2023-04-17T09:21:01.099Z,7.2
2023-04-17T09:22:01.119Z,7.1
2023-04-17T09:23:01.105Z,7.3
2023-04-17T09:26:00.947Z,7.2
2023-04-17T09:31:01.100Z,7.3
2023-04-17T09:33:01.186Z,7.2
2023-04-17T09:34:01.161Z,7.3
2023-04-17T09:35:01.131Z,7.4
2023-04-17T09:38:01.000Z,7.5
2023-04-17T09:39:01.270Z,7.4
2023-04-17T09:40:01.148Z,7.5
2023-04-17T09:43:01.207Z,7.6
2023-04-17T09:47:01.481Z,7.7
2023-04-17T09:50:00.980Z,7.8
2023-04-17T09:51:01.114Z,8
2023-04-17T09:53:01.039Z,7.9
2023-04-17T09:55:01.059Z,8.1
2023-04-17T09:57:01.042Z,7.8
2023-04-17T09:59:01.092Z,7.8
2023-04-17T10:01:01.085Z,7.7
2023-04-17T10:03:01.216Z,8
2023-04-17T10:05:01.140Z,7.8
2023-04-17T10:07:01.065Z,7.8
2023-04-17T10:09:01.043Z,7.7
2023-04-17T10:12:01.005Z,7.7
2023-04-17T10:13:01.032Z,7.6
2023-04-17T10:16:01.060Z,7.8
2023-04-17T10:17:01.040Z,7.7
2023-04-17T10:19:01.154Z,7.6
2023-04-17T10:21:01.098Z,7.6
2023-04-17T10:25:01.119Z,7.4
2023-04-17T10:27:01.140Z,7.4
2023-04-17T10:29:01.154Z,7.3
2023-04-17T10:32:01.058Z,7.4
2023-04-17T10:33:01.127Z,7.3
2023-04-17T10:35:01.172Z,7.2
2023-04-17T10:37:01.142Z,7.1
2023-04-17T10:39:01.156Z,7.2
2023-04-17T10:45:01.333Z,7.3
2023-04-17T10:47:01.053Z,7.1
2023-04-17T10:49:01.013Z,7.1
2023-04-17T10:50:01.046Z,7.2
2023-04-17T10:51:01.065Z,7.3
2023-04-17T10:53:01.046Z,7.4
2023-04-17T10:55:01.015Z,7.2
2023-04-17T10:57:01.030Z,7.3
2023-04-17T10:59:01.058Z,7.1
2023-04-17T11:01:01.098Z,7.1
2023-04-17T11:03:01.210Z,7.2
2023-04-17T11:05:01.051Z,7.1
2023-04-17T11:09:01.096Z,7.3
2023-04-17T11:11:01.042Z,7.3
2023-04-17T11:14:01.141Z,7.4
2023-04-17T11:19:01.012Z,7.5
2023-04-17T11:22:01.028Z,7.6
2023-04-17T11:23:01.035Z,7.5
2023-04-17T11:25:01.007Z,7.7
2023-04-17T11:27:01.119Z,7.9
2023-04-17T11:29:01.026Z,7.7
2023-04-17T11:30:01.135Z,7.8
2023-04-17T11:32:01.021Z,7.7
2023-04-17T11:33:01.211Z,7.8
2023-04-17T11:37:01.072Z,7.5
2023-04-17T11:39:01.015Z,7.6
2023-04-17T11:40:01.036Z,7.7
2023-04-17T11:41:01.010Z,7.3
2023-04-17T11:42:01.015Z,7.4
2023-04-17T11:43:01.012Z,7.5
2023-04-17T11:46:00.974Z,7.3
2023-04-17T11:48:00.969Z,7.2
2023-04-17T11:49:01.041Z,7.4
2023-04-17T11:50:01.029Z,7.3
2023-04-17T11:51:01.016Z,7.2
2023-04-17T12:00:00.994Z,7.1
2023-04-17T12:01:01.063Z,7.4
2023-04-17T12:03:01.181Z,7.2
2023-04-17T12:06:01.010Z,7.3
2023-04-17T12:07:01.019Z,7.2
2023-04-17T12:09:01.072Z,7.3
2023-04-17T12:15:01.178Z,7.6
2023-04-17T12:18:01.081Z,7.6
2023-04-17T12:20:00.946Z,7.7
2023-04-17T12:21:01.025Z,7.6
2023-04-17T12:24:01.006Z,7.8
2023-04-17T12:26:00.942Z,7.9
2023-04-17T12:27:01.027Z,8
2023-04-17T12:30:01.156Z,8.1
2023-04-17T12:32:01.004Z,8
2023-04-17T12:34:01.003Z,7.8
2023-04-17T12:35:01.012Z,7.7
2023-04-17T12:37:01.016Z,7.8
2023-04-17T12:39:01.055Z,7.7
2023-04-17T12:41:01.069Z,7.8
2023-04-17T12:43:01.021Z,7.7
2023-04-17T12:45:01.058Z,7.6
2023-04-17T12:47:01.048Z,7.6
2023-04-17T12:49:01.015Z,7.6
2023-04-17T12:53:01.126Z,7.5
2023-04-17T12:55:01.025Z,7.5
2023-04-17T12:56:01.131Z,7.6
2023-04-17T13:01:01.054Z,7.4
2023-04-17T13:07:01.066Z,7.6
2023-04-17T13:09:01.070Z,7.6
2023-04-17T13:11:01.051Z,7.5
2023-04-17T13:13:01.083Z,7.5
2023-04-17T13:17:01.045Z,7.6
2023-04-17T13:19:01.137Z,7.6
2023-04-17T13:23:01.065Z,7.8
2023-04-17T13:25:01.085Z,7.8
2023-04-17T13:27:01.011Z,7.7
2023-04-17T13:31:01.023Z,7.6
2023-04-17T13:33:01.207Z,7.8
2023-04-17T13:34:01.145Z,7.6
2023-04-17T13:36:01.047Z,7.6
2023-04-17T13:37:01.007Z,7.7
2023-04-17T13:41:01.063Z,7.8
2023-04-17T13:43:01.042Z,7.8
2023-04-17T13:44:01.098Z,7.7
2023-04-17T13:46:01.059Z,7.6
2023-04-17T13:48:00.985Z,7.8
2023-04-17T13:49:01.075Z,7.7
2023-04-17T13:51:01.078Z,7.7
2023-04-17T13:53:01.184Z,7.7
2023-04-17T13:55:01.026Z,7.8
2023-04-17T13:57:01.087Z,7.7
2023-04-17T13:59:01.029Z,7.7
2023-04-17T14:00:01.027Z,7.8
2023-04-17T14:01:01.045Z,7.6
2023-04-17T14:03:01.134Z,7.7
2023-04-17T14:09:01.027Z,7.7
2023-04-17T14:11:01.034Z,7.7
2023-04-17T14:14:00.953Z,7.7
2023-04-17T14:15:01.226Z,7.6
2023-04-17T14:17:01.040Z,7.6
2023-04-17T14:20:00.984Z,7.6
2023-04-17T14:22:00.933Z,7.7
2023-04-17T14:23:01.214Z,7.6
2023-04-17T14:25:01.082Z,7.6
2023-04-17T14:27:01.056Z,7.5
2023-04-17T14:32:01.016Z,7.6
2023-04-17T14:33:01.066Z,7.5
2023-04-17T14:37:01.110Z,7.5
2023-04-17T14:43:01.072Z,7.6
2023-04-17T14:45:01.079Z,7.4
2023-04-17T14:48:01.062Z,7.6
2023-04-17T14:49:01.136Z,7.5
2023-04-17T14:51:01.103Z,7.6
2023-04-17T14:53:01.030Z,7.6
2023-04-17T14:55:01.059Z,7.5
2023-04-17T14:58:00.981Z,7.4
2023-04-17T14:59:01.016Z,7.5
2023-04-17T15:01:01.075Z,7.7
2023-04-17T15:02:01.122Z,7.5
2023-04-17T15:04:01.170Z,7.6
2023-04-17T15:06:00.993Z,7.5
2023-04-17T15:07:01.137Z,7.7
2023-04-17T15:09:01.094Z,7.6
2023-04-17T15:12:01.016Z,7.7
2023-04-17T15:13:01.079Z,7.6
2023-04-17T15:15:01.279Z,7.5
2023-04-17T15:18:00.961Z,7.6
2023-04-17T15:19:01.213Z,7.8
2023-04-17T15:21:01.037Z,7.5
2023-04-17T15:23:01.114Z,7.6
2023-04-17T15:25:01.042Z,7.6
2023-04-17T15:28:00.949Z,7.6
2023-04-17T15:29:01.122Z,7.5
2023-04-17T15:33:01.098Z,7.6
2023-04-17T15:37:01.054Z,7.4
2023-04-17T15:40:00.938Z,7.3
2023-04-17T15:41:01.062Z,7.4
2023-04-17T15:45:01.299Z,7.3
2023-04-17T15:47:01.120Z,7.4
2023-04-17T15:49:08.693Z,7.3
2023-04-17T15:53:01.019Z,7.2
2023-04-17T15:56:01.020Z,7.3
2023-04-17T15:58:00.940Z,7.2
2023-04-17T15:59:01.021Z,7.3
2023-04-17T16:03:01.318Z,7.2
2023-04-17T16:09:01.010Z,7.2
2023-04-17T16:11:01.006Z,7.3
2023-04-17T16:13:01.048Z,7.1
2023-04-17T16:15:01.290Z,7.1
2023-04-17T16:17:01.094Z,7.2
2023-04-17T16:19:01.043Z,7
2023-04-17T16:22:00.961Z,7.3
2023-04-17T16:23:01.081Z,7.1
2023-04-17T16:25:01.002Z,7.3
2023-04-17T16:27:01.082Z,7.2
2023-04-17T16:29:01.043Z,7.2
2023-04-17T16:35:01.071Z,7.3
2023-04-17T16:37:01.008Z,7.3
2023-04-17T16:39:01.050Z,7.1
2023-04-17T16:41:01.054Z,7.2
2023-04-17T16:44:00.925Z,7.2
2023-04-17T16:45:01.063Z,7.1
2023-04-17T16:47:12.436Z,7.1
2023-04-17T16:49:01.048Z,7.1
2023-04-17T16:55:01.031Z,7
2023-04-17T16:56:01.097Z,7.2
2023-04-17T17:00:01.066Z,7.2
2023-04-17T17:02:02.197Z,7.2
2023-04-17T17:03:01.122Z,7.1
2023-04-17T17:05:01.129Z,7.2
2023-04-17T17:07:01.007Z,7.3
2023-04-17T17:09:01.015Z,7.2
2023-04-17T17:12:01.002Z,7
2023-04-17T17:13:01.064Z,7.2
2023-04-17T17:15:01.056Z,7.2
2023-04-17T17:17:01.135Z,7.2
2023-04-17T17:20:01.050Z,7
2023-04-17T17:22:00.984Z,7.1
2023-04-17T17:23:01.031Z,7.2
2023-04-17T17:25:01.008Z,7.1
2023-04-17T17:27:01.040Z,7.1
2023-04-17T17:30:01.122Z,7.2
2023-04-17T17:32:00.977Z,6.9
2023-04-17T17:33:01.058Z,7
2023-04-17T17:34:03.501Z,6.9
2023-04-17T17:36:00.918Z,7
2023-04-17T17:40:00.926Z,6.9
2023-04-17T17:44:00.925Z,7
2023-04-17T17:45:01.081Z,6.9
2023-04-17T17:48:00.973Z,6.8
2023-04-17T17:49:01.022Z,6.9
2023-04-17T17:53:01.085Z,6.8
2023-04-17T17:55:01.050Z,7
2023-04-17T17:57:01.038Z,6.8
2023-04-17T18:03:01.212Z,6.8
2023-04-17T18:05:01.164Z,6.8
2023-04-17T18:08:01.043Z,6.9
2023-04-17T18:10:00.959Z,6.8
2023-04-17T18:12:00.926Z,6.9
2023-04-17T18:13:01.016Z,6.8
2023-04-17T18:15:01.252Z,6.8
2023-04-17T18:17:01.006Z,6.8
2023-04-17T18:19:01.025Z,6.6
2023-04-17T18:21:01.055Z,6.8
2023-04-17T18:23:01.071Z,6.7
2023-04-17T18:25:01.018Z,6.8
2023-04-17T18:30:01.220Z,6.6
2023-04-17T18:32:00.954Z,6.8
2023-04-17T18:34:01.017Z,6.7
2023-04-17T18:36:00.969Z,6.6
2023-04-17T18:38:00.955Z,6.7
2023-04-17T18:39:01.045Z,6.8
2023-04-17T18:43:01.042Z,6.5
2023-04-17T18:44:01.197Z,6.6
2023-04-17T18:45:01.251Z,6.5
2023-04-17T18:47:01.205Z,6.4
2023-04-17T18:49:01.061Z,6.5
2023-04-17T18:52:01.034Z,6.6
2023-04-17T18:53:01.034Z,6.5
2023-04-17T18:55:01.051Z,6.5
2023-04-17T18:58:01.012Z,6.4
2023-04-17T19:00:01.108Z,6.5
2023-04-17T19:05:01.074Z,6.4
2023-04-17T19:07:01.089Z,6.5
2023-04-17T19:10:01.009Z,6.6
2023-04-17T19:12:01.036Z,6.4
2023-04-17T19:14:01.150Z,6.5
2023-04-17T19:15:01.068Z,6.4
2023-04-17T19:19:01.048Z,6.3
2023-04-17T19:22:00.946Z,6.5
2023-04-17T19:23:01.120Z,6.4
2023-04-17T19:25:01.171Z,6.3
2023-04-17T19:28:00.977Z,6.3
2023-04-17T19:29:01.092Z,6.2
2023-04-17T19:31:01.066Z,6.3
2023-04-17T19:33:01.072Z,6.2
2023-04-17T19:36:00.960Z,6.3
2023-04-17T19:39:01.120Z,6.2
2023-04-17T19:43:01.000Z,6.3
2023-04-17T19:45:01.127Z,6.2
2023-04-17T19:49:01.112Z,6.4
2023-04-17T19:51:01.086Z,6.2
2023-04-17T19:53:01.133Z,6.3
2023-04-17T19:55:01.037Z,6.3
2023-04-17T19:58:00.933Z,6.2
2023-04-17T20:00:01.016Z,6.1
2023-04-17T20:02:00.959Z,6.4
2023-04-17T20:03:01.175Z,6.2
2023-04-17T20:07:00.980Z,6.4
2023-04-17T20:09:00.988Z,6.2
2023-04-17T20:11:00.933Z,6.1
2023-04-17T20:12:01.255Z,6.2
2023-04-17T20:15:01.204Z,6.2
2023-04-17T20:17:01.037Z,6.3
2023-04-17T20:19:01.022Z,6.3
2023-04-17T20:21:00.954Z,6.2
2023-04-17T20:22:00.968Z,6.1
2023-04-17T20:26:00.954Z,6.2
2023-04-17T20:28:00.965Z,6.1
2023-04-17T20:29:00.992Z,6.2
2023-04-17T20:31:00.968Z,6.1
2023-04-17T20:33:01.085Z,6
2023-04-17T20:38:00.975Z,6
2023-04-17T20:39:01.058Z,6.1
2023-04-17T20:41:00.979Z,6
2023-04-17T20:44:00.966Z,6
2023-04-17T20:45:01.012Z,6.1
2023-04-17T20:47:00.984Z,6.1
2023-04-17T20:51:01.116Z,5.9
2023-04-17T20:55:01.014Z,6.1
2023-04-17T20:58:01.112Z,5.9
2023-04-17T21:01:01.791Z,6.1
2023-04-17T21:02:01.226Z,5.9
2023-04-17T21:03:01.210Z,6
2023-04-17T21:09:01.133Z,5.9
2023-04-17T21:14:00.973Z,5.9
2023-04-17T21:16:01.115Z,6
2023-04-17T21:18:01.203Z,5.9
2023-04-17T21:22:01.121Z,6
2023-04-17T21:28:01.146Z,5.8
2023-04-17T21:29:01.153Z,5.9
2023-04-17T21:33:01.279Z,5.7
2023-04-17T21:36:00.922Z,5.9
2023-04-17T21:37:00.927Z,5.8
2023-04-17T21:40:00.926Z,5.9
2023-04-17T21:41:00.973Z,5.7
2023-04-17T21:42:01.144Z,5.9
2023-04-17T21:46:01.069Z,5.7
2023-04-17T21:47:00.977Z,5.8
2023-04-17T21:49:00.935Z,5.7
2023-04-17T21:50:01.044Z,5.8
2023-04-17T21:52:00.979Z,5.7
2023-04-17T21:54:01.136Z,5.9
2023-04-17T21:57:01.011Z,5.8
2023-04-17T21:59:00.952Z,5.9
2023-04-17T22:01:00.980Z,5.8
2023-04-17T22:03:01.047Z,5.8
2023-04-17T22:07:00.951Z,5.6
2023-04-17T22:10:00.936Z,5.8
2023-04-17T22:11:00.960Z,5.7
2023-04-17T22:16:00.923Z,5.6
2023-04-17T22:17:00.990Z,5.7
2023-04-17T22:21:01.056Z,5.8
2023-04-17T22:22:01.033Z,5.7
2023-04-17T22:25:00.983Z,5.8
2023-04-17T22:29:01.200Z,5.7
2023-04-17T22:32:00.950Z,5.6
2023-04-17T22:33:01.254Z,5.7
2023-04-17T22:35:01.009Z,5.7
2023-04-17T22:37:01.120Z,5.6
2023-04-17T22:40:00.933Z,5.7
2023-04-17T22:45:01.043Z,5.8
2023-04-17T22:47:00.938Z,5.8
2023-04-17T22:48:00.991Z,5.6
2023-04-17T22:49:00.958Z,5.7
2023-04-17T22:53:00.952Z,5.6
2023-04-17T22:57:01.012Z,5.5
2023-04-17T22:58:01.061Z,5.6
2023-04-17T23:00:01.222Z,5.7
2023-04-17T23:02:01.129Z,5.6
2023-04-17T23:03:01.188Z,5.5
2023-04-17T23:05:01.026Z,5.8
2023-04-17T23:06:01.147Z,5.7
2023-04-17T23:15:01.164Z,5.7
2023-04-17T23:17:00.947Z,5.6
2023-04-17T23:19:00.971Z,5.7
2023-04-17T23:21:00.973Z,5.8
2023-04-17T23:23:00.925Z,5.6
2023-04-17T23:25:00.994Z,5.7
2023-04-17T23:27:01.095Z,5.7
2023-04-17T23:32:00.997Z,5.9
2023-04-17T23:33:01.314Z,5.7
2023-04-17T23:35:01.173Z,5.6
2023-04-17T23:39:01.129Z,5.8
2023-04-17T23:42:01.077Z,5.6
2023-04-17T23:44:00.945Z,5.7
2023-04-17T23:48:01.093Z,5.6
2023-04-17T23:50:00.922Z,5.7
2023-04-17T23:51:00.989Z,5.6
2023-04-17T23:53:00.989Z,5.7
2023-04-17T23:55:00.935Z,5.5
